sensor_id;sensor_type;location;lat;lon;timestamp;temperature;humidity
53776;DHT22;44276;49.534;6.378;2023-07-29T00:00:58;18.30;99.90
53776;DHT22;44276;49.534;6.378;2023-07-29T00:03:27;18.30;99.90
53776;DHT22;44276;49.534;6.378;2023-07-29T00:05:57;18.30;99.90
53776;DHT22;44276;49.534;6.378;2023-07-29T00:08:25;18.30;99.90
53776;DHT22;44276;49.534;6.378;2023-07-29T00:10:53;18.30;99.90
53776;DHT22;44276;49.534;6.378;2023-07-29T00:13:21;18.20;99.90
53776;DHT22;44276;49.534;6.378;2023-07-29T00:15:49;18.20;99.90
53776;DHT22;44276;49.534;6.378;2023-07-29T00:18:19;18.20;99.90
53776;DHT22;44276;49.534;6.378;2023-07-29T00:20:47;18.10;99.90
53776;DHT22;44276;49.534;6.378;2023-07-29T00:23:17;18.10;99.90
53776;DHT22;44276;49.534;6.378;2023-07-29T00:25:46;18.10;99.90
53776;DHT22;44276;49.534;6.378;2023-07-29T00:28:15;18.10;99.90
53776;DHT22;44276;49.534;6.378;2023-07-29T00:30:46;18.00;99.90
53776;DHT22;44276;49.534;6.378;2023-07-29T00:33:14;18.00;99.90
53776;DHT22;44276;49.534;6.378;2023-07-29T00:35:44;18.10;99.90
53776;DHT22;44276;49.534;6.378;2023-07-29T00:38:12;18.10;99.90
53776;DHT22;44276;49.534;6.378;2023-07-29T00:40:40;18.10;99.90
53776;DHT22;44276;49.534;6.378;2023-07-29T00:43:08;18.20;99.90
53776;DHT22;44276;49.534;6.378;2023-07-29T00:45:37;18.20;99.90
53776;DHT22;44276;49.534;6.378;2023-07-29T00:48:06;18.10;99.90
53776;DHT22;44276;49.534;6.378;2023-07-29T00:50:35;18.10;99.90
53776;DHT22;44276;49.534;6.378;2023-07-29T00:53:04;18.10;99.90
53776;DHT22;44276;49.534;6.378;2023-07-29T00:55:33;18.20;99.90
53776;DHT22;44276;49.534;6.378;2023-07-29T00:58:01;18.10;99.90
53776;DHT22;44276;49.534;6.378;2023-07-29T01:00:29;18.20;99.90
53776;DHT22;44276;49.534;6.378;2023-07-29T01:02:58;18.30;99.90
53776;DHT22;44276;49.534;6.378;2023-07-29T01:05:31;18.40;99.90
53776;DHT22;44276;49.534;6.378;2023-07-29T01:08:11;18.50;99.90
53776;DHT22;44276;49.534;6.378;2023-07-29T01:10:51;18.60;99.90
53776;DHT22;44276;49.534;6.378;2023-07-29T01:13:31;18.70;99.90
53776;DHT22;44276;49.534;6.378;2023-07-29T01:16:09;18.80;99.90
53776;DHT22;44276;49.534;6.378;2023-07-29T01:18:47;18.90;99.90
53776;DHT22;44276;49.534;6.378;2023-07-29T01:21:21;18.90;99.90
53776;DHT22;44276;49.534;6.378;2023-07-29T01:23:56;19.00;99.90
53776;DHT22;44276;49.534;6.378;2023-07-29T01:26:26;19.10;99.90
53776;DHT22;44276;49.534;6.378;2023-07-29T01:28:56;19.10;99.90
53776;DHT22;44276;49.534;6.378;2023-07-29T01:31:30;19.10;99.90
53776;DHT22;44276;49.534;6.378;2023-07-29T01:34:11;19.10;99.90
53776;DHT22;44276;49.534;6.378;2023-07-29T01:36:42;19.10;99.90
53776;DHT22;44276;49.534;6.378;2023-07-29T01:39:16;19.10;99.90
53776;DHT22;44276;49.534;6.378;2023-07-29T01:41:45;19.00;99.90
53776;DHT22;44276;49.534;6.378;2023-07-29T01:44:14;19.00;99.90
53776;DHT22;44276;49.534;6.378;2023-07-29T01:46:44;18.90;99.90
53776;DHT22;44276;49.534;6.378;2023-07-29T01:49:12;18.90;99.90
53776;DHT22;44276;49.534;6.378;2023-07-29T01:51:40;18.80;99.90
53776;DHT22;44276;49.534;6.378;2023-07-29T01:54:09;18.80;99.90
53776;DHT22;44276;49.534;6.378;2023-07-29T01:56:38;18.90;99.90
53776;DHT22;44276;49.534;6.378;2023-07-29T01:59:06;19.00;99.90
53776;DHT22;44276;49.534;6.378;2023-07-29T02:01:35;19.00;99.90
53776;DHT22;44276;49.534;6.378;2023-07-29T02:04:03;19.10;99.90
53776;DHT22;44276;49.534;6.378;2023-07-29T02:06:32;19.10;99.90
53776;DHT22;44276;49.534;6.378;2023-07-29T02:09:00;19.10;99.90
53776;DHT22;44276;49.534;6.378;2023-07-29T02:11:31;19.10;99.90
53776;DHT22;44276;49.534;6.378;2023-07-29T02:14:00;19.20;99.90
53776;DHT22;44276;49.534;6.378;2023-07-29T02:16:28;19.00;99.90
53776;DHT22;44276;49.534;6.378;2023-07-29T02:18:57;19.00;99.90
53776;DHT22;44276;49.534;6.378;2023-07-29T02:21:25;19.00;99.90
53776;DHT22;44276;49.534;6.378;2023-07-29T02:23:53;18.90;99.90
53776;DHT22;44276;49.534;6.378;2023-07-29T02:26:22;18.90;99.90
53776;DHT22;44276;49.534;6.378;2023-07-29T02:28:50;18.90;99.90
53776;DHT22;44276;49.534;6.378;2023-07-29T02:31:21;19.00;99.90
53776;DHT22;44276;49.534;6.378;2023-07-29T02:33:51;18.90;99.90
53776;DHT22;44276;49.534;6.378;2023-07-29T02:36:19;19.00;99.90
53776;DHT22;44276;49.534;6.378;2023-07-29T02:38:47;19.00;99.90
53776;DHT22;44276;49.534;6.378;2023-07-29T02:41:16;19.10;99.90
53776;DHT22;44276;49.534;6.378;2023-07-29T02:43:48;19.20;99.90
53776;DHT22;44276;49.534;6.378;2023-07-29T02:46:17;19.30;99.90
53776;DHT22;44276;49.534;6.378;2023-07-29T02:48:47;19.30;99.90
53776;DHT22;44276;49.534;6.378;2023-07-29T02:51:15;19.30;99.90
53776;DHT22;44276;49.534;6.378;2023-07-29T02:53:43;19.20;99.90
53776;DHT22;44276;49.534;6.378;2023-07-29T02:56:11;19.20;99.90
53776;DHT22;44276;49.534;6.378;2023-07-29T02:58:40;19.20;99.90
53776;DHT22;44276;49.534;6.378;2023-07-29T03:01:08;19.20;99.90
53776;DHT22;44276;49.534;6.378;2023-07-29T03:03:36;19.00;99.90
53776;DHT22;44276;49.534;6.378;2023-07-29T03:06:07;19.00;99.90
53776;DHT22;44276;49.534;6.378;2023-07-29T03:08:36;19.10;99.90
53776;DHT22;44276;49.534;6.378;2023-07-29T03:11:06;19.10;99.90
53776;DHT22;44276;49.534;6.378;2023-07-29T03:13:35;19.10;99.90
53776;DHT22;44276;49.534;6.378;2023-07-29T03:16:07;19.10;99.90
53776;DHT22;44276;49.534;6.378;2023-07-29T03:18:36;19.20;99.90
53776;DHT22;44276;49.534;6.378;2023-07-29T03:21:06;19.20;99.90
53776;DHT22;44276;49.534;6.378;2023-07-29T03:23:35;19.20;99.90
53776;DHT22;44276;49.534;6.378;2023-07-29T03:26:04;19.20;99.90
53776;DHT22;44276;49.534;6.378;2023-07-29T03:28:38;19.20;99.90
53776;DHT22;44276;49.534;6.378;2023-07-29T03:31:08;19.20;99.90
53776;DHT22;44276;49.534;6.378;2023-07-29T03:33:38;19.30;99.90
53776;DHT22;44276;49.534;6.378;2023-07-29T03:36:07;19.30;99.90
53776;DHT22;44276;49.534;6.378;2023-07-29T03:38:36;19.30;99.90
53776;DHT22;44276;49.534;6.378;2023-07-29T03:41:07;19.30;99.90
53776;DHT22;44276;49.534;6.378;2023-07-29T03:43:36;19.20;99.90
53776;DHT22;44276;49.534;6.378;2023-07-29T03:46:05;19.00;99.90
53776;DHT22;44276;49.534;6.378;2023-07-29T03:48:37;18.90;99.90
53776;DHT22;44276;49.534;6.378;2023-07-29T03:51:07;18.80;99.90
53776;DHT22;44276;49.534;6.378;2023-07-29T03:53:35;18.20;99.90
53776;DHT22;44276;49.534;6.378;2023-07-29T03:56:03;17.60;99.90
53776;DHT22;44276;49.534;6.378;2023-07-29T03:58:32;17.20;99.90
53776;DHT22;44276;49.534;6.378;2023-07-29T04:01:00;17.00;99.90
53776;DHT22;44276;49.534;6.378;2023-07-29T04:03:28;16.90;99.90
53776;DHT22;44276;49.534;6.378;2023-07-29T04:05:57;16.90;99.90
53776;DHT22;44276;49.534;6.378;2023-07-29T04:08:27;16.90;99.90
53776;DHT22;44276;49.534;6.378;2023-07-29T04:10:55;16.90;99.90
53776;DHT22;44276;49.534;6.378;2023-07-29T04:13:23;16.90;99.90
53776;DHT22;44276;49.534;6.378;2023-07-29T04:15:51;16.80;99.90
53776;DHT22;44276;49.534;6.378;2023-07-29T04:18:20;16.80;99.90
53776;DHT22;44276;49.534;6.378;2023-07-29T04:20:48;16.80;99.90
53776;DHT22;44276;49.534;6.378;2023-07-29T04:23:16;16.80;99.90
53776;DHT22;44276;49.534;6.378;2023-07-29T04:25:46;16.80;99.90
53776;DHT22;44276;49.534;6.378;2023-07-29T04:28:14;16.80;99.90
53776;DHT22;44276;49.534;6.378;2023-07-29T04:30:42;16.80;99.90
53776;DHT22;44276;49.534;6.378;2023-07-29T04:33:10;16.80;99.90
53776;DHT22;44276;49.534;6.378;2023-07-29T04:35:38;16.90;99.90
53776;DHT22;44276;49.534;6.378;2023-07-29T04:38:06;16.80;99.90
53776;DHT22;44276;49.534;6.378;2023-07-29T04:40:34;16.90;99.90
53776;DHT22;44276;49.534;6.378;2023-07-29T04:43:04;16.90;99.90
53776;DHT22;44276;49.534;6.378;2023-07-29T04:45:32;17.00;99.90
53776;DHT22;44276;49.534;6.378;2023-07-29T04:48:00;17.10;99.90
53776;DHT22;44276;49.534;6.378;2023-07-29T04:50:29;17.00;99.90
53776;DHT22;44276;49.534;6.378;2023-07-29T04:52:57;17.10;99.90
53776;DHT22;44276;49.534;6.378;2023-07-29T04:55:26;17.10;99.90
53776;DHT22;44276;49.534;6.378;2023-07-29T04:57:54;17.10;99.90
53776;DHT22;44276;49.534;6.378;2023-07-29T05:00:24;17.10;99.90
53776;DHT22;44276;49.534;6.378;2023-07-29T05:02:52;17.10;99.90
53776;DHT22;44276;49.534;6.378;2023-07-29T05:05:20;17.10;99.90
53776;DHT22;44276;49.534;6.378;2023-07-29T05:07:49;17.10;99.90
53776;DHT22;44276;49.534;6.378;2023-07-29T05:10:17;17.20;99.90
53776;DHT22;44276;49.534;6.378;2023-07-29T05:12:46;17.30;99.90
53776;DHT22;44276;49.534;6.378;2023-07-29T05:15:14;17.40;99.90
53776;DHT22;44276;49.534;6.378;2023-07-29T05:17:43;17.40;99.90
53776;DHT22;44276;49.534;6.378;2023-07-29T05:20:12;17.50;99.90
53776;DHT22;44276;49.534;6.378;2023-07-29T05:22:40;17.50;99.90
53776;DHT22;44276;49.534;6.378;2023-07-29T05:25:08;17.60;99.90
53776;DHT22;44276;49.534;6.378;2023-07-29T05:27:36;17.60;99.90
53776;DHT22;44276;49.534;6.378;2023-07-29T05:30:06;17.70;99.90
53776;DHT22;44276;49.534;6.378;2023-07-29T05:32:35;17.80;99.90
53776;DHT22;44276;49.534;6.378;2023-07-29T05:35:06;17.90;99.90
53776;DHT22;44276;49.534;6.378;2023-07-29T05:37:35;17.90;99.90
53776;DHT22;44276;49.534;6.378;2023-07-29T05:40:06;17.90;99.90
53776;DHT22;44276;49.534;6.378;2023-07-29T05:42:35;17.90;99.90
53776;DHT22;44276;49.534;6.378;2023-07-29T05:45:04;17.90;99.90
53776;DHT22;44276;49.534;6.378;2023-07-29T05:47:33;17.90;99.90
53776;DHT22;44276;49.534;6.378;2023-07-29T05:50:01;17.90;99.90
53776;DHT22;44276;49.534;6.378;2023-07-29T05:52:33;18.00;99.90
53776;DHT22;44276;49.534;6.378;2023-07-29T05:55:01;18.10;99.90
53776;DHT22;44276;49.534;6.378;2023-07-29T05:57:29;18.20;99.90
53776;DHT22;44276;49.534;6.378;2023-07-29T05:59:57;18.20;99.90
53776;DHT22;44276;49.534;6.378;2023-07-29T06:02:25;18.20;99.90
53776;DHT22;44276;49.534;6.378;2023-07-29T06:04:54;18.10;99.90
53776;DHT22;44276;49.534;6.378;2023-07-29T06:07:22;18.20;99.90
53776;DHT22;44276;49.534;6.378;2023-07-29T06:09:51;18.40;99.90
53776;DHT22;44276;49.534;6.378;2023-07-29T06:12:22;18.50;99.90
53776;DHT22;44276;49.534;6.378;2023-07-29T06:14:50;18.60;99.90
53776;DHT22;44276;49.534;6.378;2023-07-29T06:17:18;18.60;99.90
53776;DHT22;44276;49.534;6.378;2023-07-29T06:19:46;18.70;99.90
53776;DHT22;44276;49.534;6.378;2023-07-29T06:22:14;18.90;99.90
53776;DHT22;44276;49.534;6.378;2023-07-29T06:24:43;19.00;99.90
53776;DHT22;44276;49.534;6.378;2023-07-29T06:27:13;18.80;99.90
53776;DHT22;44276;49.534;6.378;2023-07-29T06:29:41;18.80;99.90
53776;DHT22;44276;49.534;6.378;2023-07-29T06:32:09;18.90;99.90
53776;DHT22;44276;49.534;6.378;2023-07-29T06:34:38;19.20;99.90
53776;DHT22;44276;49.534;6.378;2023-07-29T06:37:06;19.40;99.90
53776;DHT22;44276;49.534;6.378;2023-07-29T06:39:34;19.40;99.90
53776;DHT22;44276;49.534;6.378;2023-07-29T06:42:03;19.40;99.90
53776;DHT22;44276;49.534;6.378;2023-07-29T06:44:33;19.70;99.90
53776;DHT22;44276;49.534;6.378;2023-07-29T06:47:02;20.40;99.90
53776;DHT22;44276;49.534;6.378;2023-07-29T06:49:30;20.90;99.90
53776;DHT22;44276;49.534;6.378;2023-07-29T06:51:59;20.80;99.90
53776;DHT22;44276;49.534;6.378;2023-07-29T06:54:38;20.50;99.90
53776;DHT22;44276;49.534;6.378;2023-07-29T06:57:17;20.40;99.90
53776;DHT22;44276;49.534;6.378;2023-07-29T06:59:47;20.50;99.90
53776;DHT22;44276;49.534;6.378;2023-07-29T07:02:18;20.80;99.90
53776;DHT22;44276;49.534;6.378;2023-07-29T07:04:49;20.80;99.90
53776;DHT22;44276;49.534;6.378;2023-07-29T07:07:17;20.60;99.90
53776;DHT22;44276;49.534;6.378;2023-07-29T07:09:46;20.50;99.90
53776;DHT22;44276;49.534;6.378;2023-07-29T07:12:14;20.30;99.90
53776;DHT22;44276;49.534;6.378;2023-07-29T07:14:42;20.80;99.90
53776;DHT22;44276;49.534;6.378;2023-07-29T07:17:12;22.60;99.90
53776;DHT22;44276;49.534;6.378;2023-07-29T07:19:41;24.00;99.90
53776;DHT22;44276;49.534;6.378;2023-07-29T07:22:10;24.90;99.90
53776;DHT22;44276;49.534;6.378;2023-07-29T07:24:41;25.50;99.90
53776;DHT22;44276;49.534;6.378;2023-07-29T07:27:10;25.30;99.90
53776;DHT22;44276;49.534;6.378;2023-07-29T07:29:40;24.90;99.90
53776;DHT22;44276;49.534;6.378;2023-07-29T07:32:08;24.50;99.90
53776;DHT22;44276;49.534;6.378;2023-07-29T07:34:38;24.70;99.90
53776;DHT22;44276;49.534;6.378;2023-07-29T07:37:07;26.60;78.90
53776;DHT22;44276;49.534;6.378;2023-07-29T07:39:36;26.90;65.10
53776;DHT22;44276;49.534;6.378;2023-07-29T07:42:05;25.70;73.50
53776;DHT22;44276;49.534;6.378;2023-07-29T07:44:35;24.00;97.40
53776;DHT22;44276;49.534;6.378;2023-07-29T07:47:04;23.20;99.90
53776;DHT22;44276;49.534;6.378;2023-07-29T07:49:33;22.90;99.90
53776;DHT22;44276;49.534;6.378;2023-07-29T07:52:15;22.90;99.90
53776;DHT22;44276;49.534;6.378;2023-07-29T07:54:52;22.90;99.90
53776;DHT22;44276;49.534;6.378;2023-07-29T07:57:22;23.00;99.90
53776;DHT22;44276;49.534;6.378;2023-07-29T07:59:51;23.30;99.90
53776;DHT22;44276;49.534;6.378;2023-07-29T08:02:21;23.10;99.90
53776;DHT22;44276;49.534;6.378;2023-07-29T08:04:49;24.40;77.80
53776;DHT22;44276;49.534;6.378;2023-07-29T08:07:19;25.50;66.60
53776;DHT22;44276;49.534;6.378;2023-07-29T08:09:51;24.90;56.50
53776;DHT22;44276;49.534;6.378;2023-07-29T08:12:20;24.90;60.00
53776;DHT22;44276;49.534;6.378;2023-07-29T08:14:50;24.20;68.10
53776;DHT22;44276;49.534;6.378;2023-07-29T08:17:19;24.50;62.60
53776;DHT22;44276;49.534;6.378;2023-07-29T08:19:48;24.40;61.30
53776;DHT22;44276;49.534;6.378;2023-07-29T08:22:19;24.50;62.80
53776;DHT22;44276;49.534;6.378;2023-07-29T08:24:48;26.20;51.60
53776;DHT22;44276;49.534;6.378;2023-07-29T08:27:16;26.80;39.30
53776;DHT22;44276;49.534;6.378;2023-07-29T08:29:45;26.70;42.00
53776;DHT22;44276;49.534;6.378;2023-07-29T08:32:14;25.80;43.10
53776;DHT22;44276;49.534;6.378;2023-07-29T08:34:44;25.00;47.40
53776;DHT22;44276;49.534;6.378;2023-07-29T08:37:19;24.80;46.30
53776;DHT22;44276;49.534;6.378;2023-07-29T08:39:50;25.60;43.30
53776;DHT22;44276;49.534;6.378;2023-07-29T08:42:22;26.00;38.90
53776;DHT22;44276;49.534;6.378;2023-07-29T08:44:56;25.20;39.80
53776;DHT22;44276;49.534;6.378;2023-07-29T08:47:26;25.00;39.30
53776;DHT22;44276;49.534;6.378;2023-07-29T08:49:55;25.50;37.80
53776;DHT22;44276;49.534;6.378;2023-07-29T08:52:26;26.00;35.90
53776;DHT22;44276;49.534;6.378;2023-07-29T08:54:55;27.10;34.70
53776;DHT22;44276;49.534;6.378;2023-07-29T08:57:24;27.90;32.90
53776;DHT22;44276;49.534;6.378;2023-07-29T08:59:55;27.70;31.80
53776;DHT22;44276;49.534;6.378;2023-07-29T09:02:24;26.40;32.70
53776;DHT22;44276;49.534;6.378;2023-07-29T09:04:52;25.80;34.90
53776;DHT22;44276;49.534;6.378;2023-07-29T09:07:29;25.20;38.10
53776;DHT22;44276;49.534;6.378;2023-07-29T09:09:58;24.80;38.10
53776;DHT22;44276;49.534;6.378;2023-07-29T09:12:27;24.40;42.50
53776;DHT22;44276;49.534;6.378;2023-07-29T09:14:55;23.40;50.30
53776;DHT22;44276;49.534;6.378;2023-07-29T09:17:24;23.10;57.80
53776;DHT22;44276;49.534;6.378;2023-07-29T09:19:52;24.90;45.90
53776;DHT22;44276;49.534;6.378;2023-07-29T09:22:21;26.60;36.80
53776;DHT22;44276;49.534;6.378;2023-07-29T09:24:52;27.40;32.20
53776;DHT22;44276;49.534;6.378;2023-07-29T09:27:24;28.30;32.40
53776;DHT22;44276;49.534;6.378;2023-07-29T09:29:54;28.40;29.00
53776;DHT22;44276;49.534;6.378;2023-07-29T09:32:24;28.70;28.40
53776;DHT22;44276;49.534;6.378;2023-07-29T09:34:53;28.20;27.70
53776;DHT22;44276;49.534;6.378;2023-07-29T09:37:22;28.60;27.80
53776;DHT22;44276;49.534;6.378;2023-07-29T09:39:52;28.20;27.90
53776;DHT22;44276;49.534;6.378;2023-07-29T09:42:22;28.70;28.00
53776;DHT22;44276;49.534;6.378;2023-07-29T09:44:50;29.20;26.20
53776;DHT22;44276;49.534;6.378;2023-07-29T09:47:21;28.00;28.50
53776;DHT22;44276;49.534;6.378;2023-07-29T09:49:50;26.50;32.80
53776;DHT22;44276;49.534;6.378;2023-07-29T09:52:20;25.70;34.10
53776;DHT22;44276;49.534;6.378;2023-07-29T09:54:51;26.50;33.10
53776;DHT22;44276;49.534;6.378;2023-07-29T09:57:21;27.70;29.40
53776;DHT22;44276;49.534;6.378;2023-07-29T09:59:55;27.70;30.70
53776;DHT22;44276;49.534;6.378;2023-07-29T10:02:24;27.90;30.40
53776;DHT22;44276;49.534;6.378;2023-07-29T10:04:56;27.40;30.00
53776;DHT22;44276;49.534;6.378;2023-07-29T10:07:26;27.10;30.20
53776;DHT22;44276;49.534;6.378;2023-07-29T10:09:56;27.60;30.00
53776;DHT22;44276;49.534;6.378;2023-07-29T10:12:27;28.60;29.20
53776;DHT22;44276;49.534;6.378;2023-07-29T10:14:59;29.70;24.70
53776;DHT22;44276;49.534;6.378;2023-07-29T10:17:29;29.40;24.50
53776;DHT22;44276;49.534;6.378;2023-07-29T10:19:58;28.10;27.00
53776;DHT22;44276;49.534;6.378;2023-07-29T10:22:29;28.60;26.00
53776;DHT22;44276;49.534;6.378;2023-07-29T10:25:05;29.60;26.40
53776;DHT22;44276;49.534;6.378;2023-07-29T10:27:42;30.70;22.60
53776;DHT22;44276;49.534;6.378;2023-07-29T10:30:15;31.30;22.30
53776;DHT22;44276;49.534;6.378;2023-07-29T10:32:44;30.90;21.50
53776;DHT22;44276;49.534;6.378;2023-07-29T10:35:14;28.70;24.50
53776;DHT22;44276;49.534;6.378;2023-07-29T10:37:43;27.00;28.10
53776;DHT22;44276;49.534;6.378;2023-07-29T10:40:13;26.30;28.40
53776;DHT22;44276;49.534;6.378;2023-07-29T10:42:59;27.20;27.90
53776;DHT22;44276;49.534;6.378;2023-07-29T10:45:37;28.20;25.10
53776;DHT22;44276;49.534;6.378;2023-07-29T10:48:08;27.30;26.30
53776;DHT22;44276;49.534;6.378;2023-07-29T10:50:38;26.60;28.10
53776;DHT22;44276;49.534;6.378;2023-07-29T10:53:07;26.00;29.60
53776;DHT22;44276;49.534;6.378;2023-07-29T10:55:37;26.30;31.20
53776;DHT22;44276;49.534;6.378;2023-07-29T10:58:08;28.10;27.40
53776;DHT22;44276;49.534;6.378;2023-07-29T11:00:41;28.90;24.50
53776;DHT22;44276;49.534;6.378;2023-07-29T11:03:12;29.70;24.70
53776;DHT22;44276;49.534;6.378;2023-07-29T11:05:44;29.70;23.10
53776;DHT22;44276;49.534;6.378;2023-07-29T11:08:19;29.80;24.00
53776;DHT22;44276;49.534;6.378;2023-07-29T11:11:02;29.00;24.40
53776;DHT22;44276;49.534;6.378;2023-07-29T11:13:33;28.90;25.60
53776;DHT22;44276;49.534;6.378;2023-07-29T11:16:05;28.90;24.70
53776;DHT22;44276;49.534;6.378;2023-07-29T11:18:35;28.80;23.30
53776;DHT22;44276;49.534;6.378;2023-07-29T11:21:04;28.10;24.10
53776;DHT22;44276;49.534;6.378;2023-07-29T11:23:33;28.40;24.30
53776;DHT22;44276;49.534;6.378;2023-07-29T11:26:05;29.20;23.50
53776;DHT22;44276;49.534;6.378;2023-07-29T11:28:38;29.50;23.20
53776;DHT22;44276;49.534;6.378;2023-07-29T11:31:07;30.40;22.90
53776;DHT22;44276;49.534;6.378;2023-07-29T11:33:39;30.90;20.70
53776;DHT22;44276;49.534;6.378;2023-07-29T11:36:17;30.60;21.00
53776;DHT22;44276;49.534;6.378;2023-07-29T11:38:46;30.60;20.90
53776;DHT22;44276;49.534;6.378;2023-07-29T11:41:19;29.40;21.20
53776;DHT22;44276;49.534;6.378;2023-07-29T11:43:48;29.20;21.80
53776;DHT22;44276;49.534;6.378;2023-07-29T11:46:21;29.70;21.70
53776;DHT22;44276;49.534;6.378;2023-07-29T11:48:50;30.10;21.20
53776;DHT22;44276;49.534;6.378;2023-07-29T11:51:18;29.50;22.20
53776;DHT22;44276;49.534;6.378;2023-07-29T11:53:46;29.00;22.70
53776;DHT22;44276;49.534;6.378;2023-07-29T11:56:17;29.30;23.40
53776;DHT22;44276;49.534;6.378;2023-07-29T11:58:45;29.90;22.90
53776;DHT22;44276;49.534;6.378;2023-07-29T12:01:13;29.80;22.00
53776;DHT22;44276;49.534;6.378;2023-07-29T12:03:42;29.20;22.10
53776;DHT22;44276;49.534;6.378;2023-07-29T12:06:11;28.90;20.90
53776;DHT22;44276;49.534;6.378;2023-07-29T12:08:40;29.40;21.80
53776;DHT22;44276;49.534;6.378;2023-07-29T12:11:09;30.20;20.30
53776;DHT22;44276;49.534;6.378;2023-07-29T12:13:41;30.60;20.40
53776;DHT22;44276;49.534;6.378;2023-07-29T12:16:09;30.40;18.40
53776;DHT22;44276;49.534;6.378;2023-07-29T12:18:43;29.30;20.00
53776;DHT22;44276;49.534;6.378;2023-07-29T12:21:14;28.60;21.00
53776;DHT22;44276;49.534;6.378;2023-07-29T12:23:43;28.30;21.60
53776;DHT22;44276;49.534;6.378;2023-07-29T12:26:11;28.70;20.90
53776;DHT22;44276;49.534;6.378;2023-07-29T12:28:45;29.30;21.70
53776;DHT22;44276;49.534;6.378;2023-07-29T12:31:13;30.10;19.70
53776;DHT22;44276;49.534;6.378;2023-07-29T12:33:42;30.50;19.40
53776;DHT22;44276;49.534;6.378;2023-07-29T12:36:10;29.80;18.60
53776;DHT22;44276;49.534;6.378;2023-07-29T12:38:38;29.50;19.30
53776;DHT22;44276;49.534;6.378;2023-07-29T12:41:06;29.70;20.10
53776;DHT22;44276;49.534;6.378;2023-07-29T12:43:34;29.70;20.00
53776;DHT22;44276;49.534;6.378;2023-07-29T12:46:04;29.90;20.70
53776;DHT22;44276;49.534;6.378;2023-07-29T12:48:32;29.00;21.00
53776;DHT22;44276;49.534;6.378;2023-07-29T12:51:00;28.50;21.80
53776;DHT22;44276;49.534;6.378;2023-07-29T12:53:28;28.50;21.70
53776;DHT22;44276;49.534;6.378;2023-07-29T12:55:57;27.90;23.10
53776;DHT22;44276;49.534;6.378;2023-07-29T12:58:25;28.30;22.50
53776;DHT22;44276;49.534;6.378;2023-07-29T13:00:53;27.80;22.70
53776;DHT22;44276;49.534;6.378;2023-07-29T13:03:23;27.40;24.10
53776;DHT22;44276;49.534;6.378;2023-07-29T13:05:52;27.90;24.00
53776;DHT22;44276;49.534;6.378;2023-07-29T13:08:20;28.70;22.60
53776;DHT22;44276;49.534;6.378;2023-07-29T13:10:49;28.70;21.90
53776;DHT22;44276;49.534;6.378;2023-07-29T13:13:17;29.40;21.50
53776;DHT22;44276;49.534;6.378;2023-07-29T13:15:47;29.70;22.00
53776;DHT22;44276;49.534;6.378;2023-07-29T13:18:15;29.40;21.40
53776;DHT22;44276;49.534;6.378;2023-07-29T13:20:45;29.40;21.70
53776;DHT22;44276;49.534;6.378;2023-07-29T13:23:13;29.20;22.40
53776;DHT22;44276;49.534;6.378;2023-07-29T13:25:42;29.40;21.80
53776;DHT22;44276;49.534;6.378;2023-07-29T13:28:10;29.40;22.50
53776;DHT22;44276;49.534;6.378;2023-07-29T13:30:40;29.60;21.90
53776;DHT22;44276;49.534;6.378;2023-07-29T13:33:09;29.80;22.40
53776;DHT22;44276;49.534;6.378;2023-07-29T13:35:37;30.20;21.80
53776;DHT22;44276;49.534;6.378;2023-07-29T13:38:06;30.10;21.20
53776;DHT22;44276;49.534;6.378;2023-07-29T13:40:35;29.90;21.70
53776;DHT22;44276;49.534;6.378;2023-07-29T13:43:04;29.60;22.40
53776;DHT22;44276;49.534;6.378;2023-07-29T13:45:34;29.40;22.10
53776;DHT22;44276;49.534;6.378;2023-07-29T13:48:03;29.30;21.90
53776;DHT22;44276;49.534;6.378;2023-07-29T13:50:31;29.40;22.40
53776;DHT22;44276;49.534;6.378;2023-07-29T13:52:59;29.30;23.00
53776;DHT22;44276;49.534;6.378;2023-07-29T13:55:29;29.30;21.80
53776;DHT22;44276;49.534;6.378;2023-07-29T13:57:57;29.20;22.60
53776;DHT22;44276;49.534;6.378;2023-07-29T14:00:25;29.60;22.40
53776;DHT22;44276;49.534;6.378;2023-07-29T14:02:54;29.70;21.90
53776;DHT22;44276;49.534;6.378;2023-07-29T14:05:22;29.30;21.70
53776;DHT22;44276;49.534;6.378;2023-07-29T14:07:50;28.30;23.90
53776;DHT22;44276;49.534;6.378;2023-07-29T14:10:18;28.50;23.60
53776;DHT22;44276;49.534;6.378;2023-07-29T14:12:48;28.60;24.70
53776;DHT22;44276;49.534;6.378;2023-07-29T14:15:16;29.40;22.00
53776;DHT22;44276;49.534;6.378;2023-07-29T14:17:45;29.10;22.80
53776;DHT22;44276;49.534;6.378;2023-07-29T14:20:13;28.90;22.60
53776;DHT22;44276;49.534;6.378;2023-07-29T14:22:43;28.50;23.30
53776;DHT22;44276;49.534;6.378;2023-07-29T14:25:11;27.60;25.40
53776;DHT22;44276;49.534;6.378;2023-07-29T14:27:39;27.40;25.80
53776;DHT22;44276;49.534;6.378;2023-07-29T14:30:10;28.30;25.10
53776;DHT22;44276;49.534;6.378;2023-07-29T14:32:38;28.70;23.40
53776;DHT22;44276;49.534;6.378;2023-07-29T14:35:07;28.90;24.00
53776;DHT22;44276;49.534;6.378;2023-07-29T14:37:35;28.80;23.10
53776;DHT22;44276;49.534;6.378;2023-07-29T14:40:05;28.00;24.60
53776;DHT22;44276;49.534;6.378;2023-07-29T14:42:34;27.90;25.10
53776;DHT22;44276;49.534;6.378;2023-07-29T14:45:02;28.60;23.60
53776;DHT22;44276;49.534;6.378;2023-07-29T14:47:33;28.40;24.30
53776;DHT22;44276;49.534;6.378;2023-07-29T14:50:02;28.30;24.90
53776;DHT22;44276;49.534;6.378;2023-07-29T14:52:30;28.20;24.90
53776;DHT22;44276;49.534;6.378;2023-07-29T14:54:58;27.80;25.30
53776;DHT22;44276;49.534;6.378;2023-07-29T14:57:26;28.00;25.80
53776;DHT22;44276;49.534;6.378;2023-07-29T14:59:54;28.40;25.10
53776;DHT22;44276;49.534;6.378;2023-07-29T15:02:23;28.60;24.60
53776;DHT22;44276;49.534;6.378;2023-07-29T15:04:53;29.00;22.90
53776;DHT22;44276;49.534;6.378;2023-07-29T15:07:22;28.90;23.50
53776;DHT22;44276;49.534;6.378;2023-07-29T15:09:50;28.30;24.30
53776;DHT22;44276;49.534;6.378;2023-07-29T15:12:18;28.50;24.40
53776;DHT22;44276;49.534;6.378;2023-07-29T15:14:46;28.70;24.20
53776;DHT22;44276;49.534;6.378;2023-07-29T15:17:15;28.60;24.40
53776;DHT22;44276;49.534;6.378;2023-07-29T15:19:43;28.00;24.90
53776;DHT22;44276;49.534;6.378;2023-07-29T15:22:13;27.20;26.40
53776;DHT22;44276;49.534;6.378;2023-07-29T15:24:41;26.60;28.20
53776;DHT22;44276;49.534;6.378;2023-07-29T15:27:10;26.70;28.50
53776;DHT22;44276;49.534;6.378;2023-07-29T15:29:38;26.90;28.50
53776;DHT22;44276;49.534;6.378;2023-07-29T15:32:07;27.60;28.30
53776;DHT22;44276;49.534;6.378;2023-07-29T15:34:35;28.00;27.60
53776;DHT22;44276;49.534;6.378;2023-07-29T15:37:04;28.10;27.00
53776;DHT22;44276;49.534;6.378;2023-07-29T15:39:34;27.80;26.20
53776;DHT22;44276;49.534;6.378;2023-07-29T15:42:02;27.70;27.30
53776;DHT22;44276;49.534;6.378;2023-07-29T15:44:31;27.90;26.40